createdAt,value
2017-03-01T00:00:18.131Z,23.08
2017-03-01T00:01:18.454Z,23.03
2017-03-01T00:02:18.399Z,23.03
2017-03-01T00:03:18.324Z,22.99
2017-03-01T00:04:18.289Z,23
2017-03-01T00:05:18.205Z,23.06
2017-03-01T00:06:18.161Z,23.06
2017-03-01T00:07:18.108Z,23
2017-03-01T00:08:18.029Z,23
2017-03-01T00:09:17.960Z,23.02
2017-03-01T00:10:17.916Z,23
2017-03-01T00:11:17.829Z,23
2017-03-01T00:12:17.775Z,23.06
2017-03-01T00:13:17.703Z,22.99
2017-03-01T00:14:17.658Z,23.02
2017-03-01T00:15:17.579Z,23.02
2017-03-01T00:16:17.535Z,23
2017-03-01T00:17:17.455Z,23.06
2017-03-01T00:18:17.406Z,23.02
2017-03-01T00:19:17.344Z,23.09
2017-03-01T00:20:17.267Z,23
2017-03-01T00:21:17.207Z,23.06
2017-03-01T00:22:17.156Z,23.02
2017-03-01T00:23:17.088Z,23.03
2017-03-01T00:24:17.022Z,23.02
2017-03-01T00:25:16.962Z,23.02
2017-03-01T00:26:16.900Z,23.08
2017-03-01T00:27:16.836Z,23
2017-03-01T00:28:16.769Z,23.03
2017-03-01T00:29:16.768Z,23.03
2017-03-01T00:30:16.651Z,23.02
2017-03-01T00:31:16.605Z,23.06
2017-03-01T00:32:16.536Z,23.03
2017-03-01T00:33:16.466Z,22.98
2017-03-01T00:34:16.398Z,23.06
2017-03-01T00:35:16.337Z,23.06
2017-03-01T00:36:15.889Z,23.03
2017-03-01T00:37:15.832Z,23
2017-03-01T00:38:16.156Z,23.03
2017-03-01T00:39:15.719Z,23.03
2017-03-01T00:40:16.023Z,23.06
2017-03-01T00:41:15.978Z,23
2017-03-01T00:42:15.900Z,23.03
2017-03-01T00:43:15.851Z,23.03
2017-03-01T00:44:15.776Z,23.06
2017-03-01T00:45:15.715Z,23
2017-03-01T00:46:15.656Z,23.05
2017-03-01T00:47:15.587Z,23.05
2017-03-01T00:48:15.526Z,23.02
2017-03-01T00:49:15.467Z,23.03
2017-03-01T00:50:15.414Z,23.03
2017-03-01T00:51:15.342Z,23.03
2017-03-01T00:52:15.280Z,23.06
2017-03-01T00:53:15.245Z,23.08
2017-03-01T00:54:15.168Z,23.02
2017-03-01T00:55:15.091Z,22.99
2017-03-01T00:56:15.038Z,23.03
2017-03-01T00:57:14.968Z,22.99
2017-03-01T00:58:14.908Z,23.03
2017-03-01T00:59:14.842Z,23.03
2017-03-01T01:44:04.912Z,23.02
2017-03-01T01:44:32.898Z,23.06
2017-03-01T01:45:32.864Z,23.02
2017-03-01T01:46:32.793Z,23.08
2017-03-01T01:47:32.727Z,23.06
2017-03-01T01:48:32.647Z,23.02
2017-03-01T01:49:32.595Z,23.05
2017-03-01T01:50:32.527Z,23.06
2017-03-01T01:51:32.460Z,22.98
2017-03-01T01:52:32.412Z,23.06
2017-03-01T01:53:32.339Z,23.06
2017-03-01T01:54:32.279Z,23.06
2017-03-01T01:55:32.223Z,23.02
2017-03-01T01:56:32.158Z,23.05
2017-03-01T01:57:32.095Z,23.02
2017-03-01T01:58:32.026Z,23.08
2017-03-01T01:59:31.580Z,23.02
2017-03-01T02:00:31.910Z,22.99
2017-03-01T02:01:31.857Z,23.03
2017-03-01T02:02:31.776Z,23.09
2017-03-01T02:03:31.351Z,23.08
2017-03-01T02:04:31.675Z,23.02
2017-03-01T02:05:31.592Z,23.03
2017-03-01T02:06:31.532Z,23.06
2017-03-01T02:07:31.483Z,23.05
2017-03-01T02:08:31.405Z,23.08
2017-03-01T02:09:31.348Z,23.08
2017-03-01T02:10:30.905Z,23.06
2017-03-01T02:11:31.220Z,23.06
2017-03-01T02:12:31.166Z,23.06
2017-03-01T02:13:31.120Z,22.98
2017-03-01T02:14:31.033Z,23.09
2017-03-01T02:15:30.591Z,23.03
2017-03-01T02:16:30.910Z,23.03
2017-03-01T02:17:30.851Z,23.06
2017-03-01T02:18:30.417Z,23.06
2017-03-01T02:19:30.755Z,23.06
2017-03-01T02:20:30.665Z,23.03
2017-03-01T02:21:30.613Z,22.98
2017-03-01T02:22:30.536Z,23.05
2017-03-01T02:23:30.491Z,23.08
2017-03-01T02:24:30.415Z,23.03
2017-03-01T02:25:30.374Z,23.03
2017-03-01T02:26:29.910Z,23.03
2017-03-01T02:27:30.242Z,23.09
2017-03-01T02:28:30.172Z,23.02
2017-03-01T02:29:30.113Z,23
2017-03-01T02:30:30.051Z,23.02
2017-03-01T02:31:29.600Z,23.05
2017-03-01T02:32:29.940Z,23
2017-03-01T02:33:29.971Z,23
2017-03-01T02:34:29.807Z,23.03
2017-03-01T02:35:29.352Z,23.05
2017-03-01T02:36:29.689Z,23.02
2017-03-01T02:37:29.218Z,23.02
2017-03-01T02:38:29.698Z,23.03
2017-03-01T02:39:29.095Z,23.05
2017-03-01T02:40:29.417Z,23.06
2017-03-01T02:41:29.359Z,23.06
2017-03-01T02:42:29.307Z,23.06
2017-03-01T02:43:28.844Z,23.02
2017-03-01T02:44:29.184Z,23
2017-03-01T02:45:29.129Z,23
2017-03-01T02:46:28.657Z,23.02
2017-03-01T02:47:28.988Z,23.03
2017-03-01T02:48:29.015Z,23.06
2017-03-01T02:49:28.855Z,23.05
2017-03-01T02:50:28.821Z,23
2017-03-01T02:51:28.738Z,23.02
2017-03-01T02:52:28.682Z,23.03
2017-03-01T02:53:28.608Z,23.05
2017-03-01T02:54:28.165Z,23.05
2017-03-01T02:55:28.094Z,23.06
2017-03-01T02:56:28.447Z,23.05
2017-03-01T02:57:28.390Z,22.99
2017-03-01T02:58:28.298Z,23.06
2017-03-01T02:59:27.868Z,23.02
2017-03-01T03:00:28.175Z,23.03
2017-03-01T03:01:27.725Z,23
2017-03-01T03:02:28.051Z,23.02
2017-03-01T03:03:27.985Z,23.05
2017-03-01T03:04:27.935Z,23.02
2017-03-01T03:05:27.478Z,23.08
2017-03-01T03:06:27.819Z,23.06
2017-03-01T03:07:27.755Z,23
2017-03-01T03:08:27.689Z,23.03
2017-03-01T03:09:27.611Z,23
2017-03-01T03:10:27.567Z,23.06
2017-03-01T03:11:27.490Z,23.02
2017-03-01T03:12:26.660Z,23.08
2017-03-01T03:13:27.372Z,23.03
2017-03-01T03:14:26.931Z,23.06
2017-03-01T03:15:27.241Z,22.98
2017-03-01T03:16:26.798Z,23.03
2017-03-01T03:17:27.145Z,23.06
2017-03-01T03:18:27.060Z,23.03
2017-03-01T03:19:27.008Z,23.02
2017-03-01T03:20:26.542Z,23.03
2017-03-01T03:21:26.485Z,22.98
2017-03-01T03:22:26.804Z,22.99
2017-03-01T03:23:26.756Z,22.94
2017-03-01T03:24:26.697Z,22.99
2017-03-01T03:25:26.246Z,23
2017-03-01T03:26:26.587Z,23.06
2017-03-01T03:27:26.523Z,22.98
2017-03-01T03:28:26.441Z,23.06
2017-03-01T03:29:26.380Z,23.08
2017-03-01T03:30:25.953Z,23
2017-03-01T03:31:26.271Z,23.02
2017-03-01T03:32:26.205Z,23
2017-03-01T03:33:26.119Z,23.08
2017-03-01T03:34:26.100Z,23
2017-03-01T03:35:25.999Z,23.06
2017-03-01T03:36:25.939Z,22.98
2017-03-01T03:37:25.872Z,22.99
2017-03-01T03:38:25.810Z,22.99
2017-03-01T03:39:25.763Z,23.02
2017-03-01T03:40:25.685Z,23
2017-03-01T03:41:25.634Z,23.02
2017-03-01T03:42:25.564Z,23.05
2017-03-01T03:43:25.511Z,23.03
2017-03-01T03:44:25.439Z,22.98
2017-03-01T03:45:25.378Z,23.03
2017-03-01T03:46:25.313Z,23.05
2017-03-01T03:47:25.303Z,23.03
2017-03-01T03:48:25.188Z,23.03
2017-03-01T03:49:25.137Z,23.02
2017-03-01T03:50:25.065Z,23.02
2017-03-01T03:51:25.023Z,23.06
2017-03-01T03:52:24.944Z,23.02
2017-03-01T03:53:24.883Z,23.06
2017-03-01T03:54:24.815Z,23.06
2017-03-01T03:55:24.475Z,23.06
2017-03-01T03:56:24.701Z,23.03
2017-03-01T03:57:24.663Z,23.03
2017-03-01T03:58:24.598Z,23.05
2017-03-01T03:59:24.121Z,23.05
2017-03-01T04:00:24.445Z,23.03
2017-03-01T04:01:24.394Z,23.06
2017-03-01T04:02:24.337Z,23.02
2017-03-01T04:03:24.274Z,23.03
2017-03-01T04:04:24.203Z,22.96
2017-03-01T04:05:24.147Z,23
2017-03-01T04:06:23.693Z,23.02
2017-03-01T04:07:24.008Z,23.05
2017-03-01T04:08:23.956Z,23.03
2017-03-01T04:09:23.888Z,22.99
2017-03-01T04:10:23.435Z,23.03
2017-03-01T04:11:23.392Z,23
2017-03-01T04:12:23.704Z,22.94
2017-03-01T04:13:23.635Z,23.03
2017-03-01T04:14:23.576Z,23.02
2017-03-01T04:15:23.510Z,23.02
2017-03-01T04:16:23.064Z,23.05
2017-03-01T04:17:23.387Z,23
2017-03-01T04:18:23.329Z,23.03
2017-03-01T04:19:23.266Z,23.02
2017-03-01T04:20:23.233Z,23.02
2017-03-01T04:21:23.141Z,22.98
2017-03-01T04:22:23.103Z,23
2017-03-01T04:23:23.017Z,22.99
2017-03-01T04:24:22.949Z,23.02
2017-03-01T04:25:22.904Z,23.05
2017-03-01T04:26:22.855Z,23
2017-03-01T04:27:22.776Z,23.05
2017-03-01T04:28:22.344Z,22.99
2017-03-01T04:29:22.657Z,23.03
2017-03-01T04:30:22.577Z,22.99
2017-03-01T04:31:22.515Z,23.02
2017-03-01T04:32:22.454Z,22.96
2017-03-01T04:33:22.392Z,23.05
2017-03-01T04:34:22.337Z,22.99
2017-03-01T04:35:22.277Z,23.02
2017-03-01T04:36:22.204Z,23.03
2017-03-01T04:37:22.140Z,23.05
2017-03-01T04:38:22.094Z,22.99
2017-03-01T04:39:22.041Z,23.03
2017-03-01T04:40:22.268Z,23.02
2017-03-01T04:41:21.917Z,23.02
2017-03-01T04:42:21.832Z,23.06
2017-03-01T04:43:20.998Z,23.03
2017-03-01T04:44:21.706Z,23.05
2017-03-01T04:45:21.665Z,23.03
2017-03-01T04:46:21.597Z,22.99
2017-03-01T04:47:21.534Z,23.03
2017-03-01T04:48:21.458Z,23
2017-03-01T04:49:21.402Z,23.03
2017-03-01T04:50:21.335Z,22.99
2017-03-01T04:51:21.280Z,23.06
2017-03-01T04:52:21.240Z,23.02
2017-03-01T04:53:21.150Z,23.05
2017-03-01T04:54:21.089Z,23.02
2017-03-01T04:55:21.023Z,23.03
2017-03-01T04:56:20.964Z,23.02
2017-03-01T04:57:20.907Z,23
2017-03-01T04:58:20.835Z,23
2017-03-01T04:59:20.395Z,23.03
2017-03-01T05:00:20.714Z,23.03
2017-03-01T05:01:20.646Z,23.02
2017-03-01T05:02:20.600Z,23.03
2017-03-01T05:03:20.546Z,23.06
2017-03-01T05:04:20.465Z,22.96
2017-03-01T05:05:20.398Z,23.02
2017-03-01T05:06:20.337Z,23
2017-03-01T05:07:20.277Z,23.02
2017-03-01T05:08:19.828Z,23
2017-03-01T05:09:19.765Z,23.03
2017-03-01T05:10:20.108Z,23
2017-03-01T05:11:20.037Z,22.96
2017-03-01T05:12:19.581Z,23.06
2017-03-01T05:13:19.904Z,22.98
2017-03-01T05:14:19.841Z,22.98
2017-03-01T05:15:19.778Z,22.99
2017-03-01T05:16:19.718Z,22.99
2017-03-01T05:17:19.657Z,22.99
2017-03-01T05:18:19.592Z,23.02
2017-03-01T05:19:19.530Z,23.02
2017-03-01T05:20:19.080Z,23
2017-03-01T05:21:19.409Z,23
2017-03-01T05:22:19.344Z,23.02
2017-03-01T05:23:19.280Z,23
2017-03-01T05:24:19.219Z,22.98
2017-03-01T05:25:19.175Z,23.02
2017-03-01T05:26:19.180Z,23
2017-03-01T05:27:18.653Z,22.96
2017-03-01T05:28:18.973Z,22.98
2017-03-01T05:29:18.524Z,23.05
2017-03-01T05:30:18.843Z,23
2017-03-01T05:31:18.804Z,22.98
2017-03-01T05:32:18.738Z,23
2017-03-01T05:33:18.667Z,23
2017-03-01T05:34:18.596Z,22.99
2017-03-01T05:35:18.553Z,23.03
2017-03-01T05:36:18.474Z,23.02
2017-03-01T05:37:18.413Z,23
2017-03-01T05:38:18.350Z,22.96
2017-03-01T05:39:18.292Z,23.02
2017-03-01T05:40:18.235Z,22.94
2017-03-01T05:41:18.175Z,23.02
2017-03-01T05:42:18.108Z,23
2017-03-01T05:43:18.060Z,23
2017-03-01T05:44:17.600Z,22.98
2017-03-01T05:45:17.926Z,22.99
2017-03-01T05:46:17.852Z,23
2017-03-01T05:47:17.790Z,22.98
2017-03-01T05:48:17.726Z,23
2017-03-01T05:49:17.691Z,23.03
2017-03-01T05:50:17.599Z,22.96
2017-03-01T05:51:17.586Z,22.98
2017-03-01T05:52:17.474Z,22.98
2017-03-01T05:53:17.042Z,23
2017-03-01T05:54:17.381Z,23.02
2017-03-01T05:55:16.905Z,22.91
2017-03-01T05:56:16.841Z,23
2017-03-01T05:57:16.798Z,23.02
2017-03-01T05:58:16.715Z,22.96
2017-03-01T05:59:17.063Z,22.98
2017-03-01T06:00:17.016Z,22.98
2017-03-01T06:01:16.927Z,22.96
2017-03-01T06:02:16.857Z,22.94
2017-03-01T06:03:16.811Z,22.94
2017-03-01T06:04:16.753Z,23.02
2017-03-01T06:05:16.671Z,22.9
2017-03-01T06:06:16.617Z,22.91
2017-03-01T06:07:16.561Z,22.98
2017-03-01T06:08:16.482Z,22.98
2017-03-01T06:09:16.440Z,22.91
2017-03-01T06:10:16.368Z,22.91
2017-03-01T06:11:16.312Z,22.99
2017-03-01T06:12:16.255Z,22.98
2017-03-01T06:13:16.171Z,22.96
2017-03-01T06:14:16.126Z,22.98
2017-03-01T06:15:15.658Z,23
2017-03-01T06:16:15.989Z,23.03
2017-03-01T06:17:15.934Z,22.96
2017-03-01T06:18:15.856Z,23.02
2017-03-01T06:19:15.824Z,22.98
2017-03-01T06:20:15.737Z,22.91
2017-03-01T06:21:15.691Z,22.98
2017-03-01T06:22:15.237Z,22.98
2017-03-01T06:23:15.557Z,23.02
2017-03-01T06:24:15.489Z,22.94
2017-03-01T06:25:15.453Z,22.94
2017-03-01T06:26:15.389Z,23.03
2017-03-01T06:27:15.299Z,23
2017-03-01T06:28:15.235Z,22.96
2017-03-01T06:29:15.173Z,22.9
2017-03-01T06:30:15.138Z,22.94
2017-03-01T06:31:15.052Z,22.99
2017-03-01T06:32:14.989Z,22.93
2017-03-01T06:33:14.925Z,22.99
2017-03-01T06:34:14.866Z,23
2017-03-01T06:35:14.455Z,22.99
2017-03-01T06:36:14.737Z,22.88
2017-03-01T06:37:14.675Z,22.94
2017-03-01T06:38:14.621Z,22.93
2017-03-01T06:39:14.554Z,22.96
2017-03-01T06:40:14.489Z,22.91
2017-03-01T06:41:14.427Z,22.96
2017-03-01T06:42:14.367Z,22.94
2017-03-01T06:43:14.303Z,22.93
2017-03-01T06:44:14.243Z,22.94
2017-03-01T06:45:14.202Z,23.02
2017-03-01T06:46:14.140Z,22.98
2017-03-01T06:47:14.076Z,22.96
2017-03-01T06:48:14.033Z,22.96
2017-03-01T06:49:13.936Z,22.98
2017-03-01T06:50:13.868Z,23.03
2017-03-01T06:51:13.826Z,22.93
2017-03-01T06:52:13.749Z,22.98
2017-03-01T06:53:13.701Z,22.99
2017-03-01T06:54:13.624Z,22.93
2017-03-01T06:55:13.587Z,22.93
2017-03-01T06:56:13.501Z,23.02
2017-03-01T06:57:13.436Z,22.91
2017-03-01T06:58:13.382Z,22.99
2017-03-01T06:59:13.304Z,22.98
2017-03-01T07:00:13.248Z,22.9
2017-03-01T07:01:13.217Z,22.94
2017-03-01T07:02:13.142Z,22.91
2017-03-01T07:03:13.065Z,22.98
2017-03-01T07:04:13.011Z,22.99
2017-03-01T07:05:12.940Z,22.9
2017-03-01T07:06:12.894Z,22.96
2017-03-01T07:07:12.425Z,22.98
2017-03-01T07:08:12.749Z,22.99
2017-03-01T07:09:12.720Z,22.93
2017-03-01T07:10:12.636Z,22.94
2017-03-01T07:11:12.563Z,23.03
2017-03-01T07:12:12.504Z,22.94
2017-03-01T07:13:12.479Z,22.98
2017-03-01T07:14:12.374Z,22.98
2017-03-01T07:15:12.312Z,22.98
2017-03-01T07:16:11.872Z,22.98
2017-03-01T07:17:12.198Z,22.99
2017-03-01T07:18:12.137Z,22.98
2017-03-01T07:19:12.080Z,22.94
2017-03-01T07:20:12.009Z,22.96
2017-03-01T07:21:11.957Z,23.02
2017-03-01T07:22:11.493Z,22.94
2017-03-01T07:23:11.934Z,23
2017-03-01T07:24:11.371Z,22.99
2017-03-01T07:25:11.750Z,22.99
2017-03-01T07:26:11.249Z,22.99
2017-03-01T07:27:11.565Z,22.99
2017-03-01T07:28:11.527Z,22.98
2017-03-01T07:29:11.454Z,23
2017-03-01T07:30:11.011Z,23.02
2017-03-01T07:31:11.323Z,23
2017-03-01T07:32:10.884Z,23
2017-03-01T07:33:11.208Z,23.03
2017-03-01T07:34:11.139Z,23
2017-03-01T07:35:11.072Z,23.03
2017-03-01T07:36:11.244Z,22.96
2017-03-01T07:37:10.949Z,23.02
2017-03-01T07:38:10.880Z,23.02
2017-03-01T07:39:10.835Z,23.05
2017-03-01T07:40:10.387Z,23.06
2017-03-01T07:41:10.697Z,23.05
2017-03-01T07:42:10.675Z,23.06
2017-03-01T07:43:10.592Z,23
2017-03-01T07:44:10.124Z,23.05
2017-03-01T07:45:10.458Z,23.03
2017-03-01T07:46:10.003Z,23.03
2017-03-01T07:47:10.330Z,23.06
2017-03-01T07:48:10.269Z,23.12
2017-03-01T07:49:09.829Z,23.1
2017-03-01T07:50:10.134Z,23.17
2017-03-01T07:51:10.076Z,23.06
2017-03-01T07:52:09.640Z,23.12
2017-03-01T07:53:09.952Z,23.08
2017-03-01T07:54:09.518Z,23.2
2017-03-01T07:55:09.828Z,23.23
2017-03-01T07:56:09.761Z,23.25
2017-03-01T07:57:09.708Z,23.2
2017-03-01T07:58:09.646Z,23.23
2017-03-01T07:59:09.575Z,23.15
2017-03-01T08:00:09.546Z,23.17
2017-03-01T08:01:09.453Z,23.1
2017-03-01T08:02:09.405Z,23.15
2017-03-01T08:03:09.338Z,23.12
2017-03-01T08:04:09.294Z,23.13
2017-03-01T08:05:08.839Z,23.13
2017-03-01T08:06:08.770Z,23.1
2017-03-01T08:07:09.079Z,23.13
2017-03-01T08:08:09.032Z,23.17
2017-03-01T08:09:08.956Z,23.12
2017-03-01T08:10:08.928Z,23.13
2017-03-01T08:11:08.451Z,23.03
2017-03-01T08:12:08.778Z,23.03
2017-03-01T08:13:08.724Z,23.12
2017-03-01T08:14:08.272Z,23.03
2017-03-01T08:15:08.594Z,23.03
2017-03-01T08:16:08.518Z,23.08
2017-03-01T08:17:08.686Z,23.03
2017-03-01T08:18:08.412Z,23.05
2017-03-01T08:19:08.345Z,23.08
2017-03-01T08:20:07.905Z,23.05
2017-03-01T08:21:08.212Z,23.08
2017-03-01T08:22:07.784Z,23.03
2017-03-01T08:23:08.103Z,23.02
2017-03-01T08:24:08.025Z,23.06
2017-03-01T08:25:07.970Z,23
2017-03-01T08:26:07.931Z,23.05
2017-03-01T08:27:07.849Z,23
2017-03-01T08:28:07.813Z,23.02
2017-03-01T08:29:07.725Z,23.06
2017-03-01T08:30:07.342Z,23.03
2017-03-01T08:31:07.596Z,23.05
2017-03-01T08:32:07.564Z,23.05
2017-03-01T08:33:07.482Z,23.06
2017-03-01T08:34:07.455Z,23.08
2017-03-01T08:35:07.345Z,23.06
2017-03-01T08:36:07.279Z,23.03
2017-03-01T08:37:06.847Z,23.03
2017-03-01T08:38:07.158Z,23.03
2017-03-01T08:39:07.133Z,23.05
2017-03-01T08:40:07.058Z,23.02
2017-03-01T08:41:06.974Z,23.08
2017-03-01T08:42:06.519Z,23.06
2017-03-01T08:43:06.857Z,23.02
2017-03-01T08:44:06.394Z,23
2017-03-01T08:45:06.745Z,22.98
2017-03-01T08:46:06.656Z,23.05
2017-03-01T08:47:06.611Z,23.02
2017-03-01T08:48:06.539Z,23.03
2017-03-01T08:49:06.472Z,23.03
2017-03-01T08:50:05.637Z,23.08
2017-03-01T08:51:06.367Z,23.05
2017-03-01T08:52:06.332Z,23
2017-03-01T08:53:06.229Z,23.03
2017-03-01T08:54:05.793Z,23.06
2017-03-01T08:55:06.194Z,23.05
2017-03-01T08:56:06.044Z,22.99
2017-03-01T08:57:05.979Z,23.05
2017-03-01T08:58:05.910Z,23.03
2017-03-01T08:59:05.847Z,23.02
2017-03-01T09:00:05.413Z,23.03
2017-03-01T09:01:05.734Z,23.08
2017-03-01T09:02:05.660Z,23.06
2017-03-01T09:03:05.624Z,23.06
2017-03-01T09:04:05.539Z,23
2017-03-01T09:05:05.360Z,23
2017-03-01T09:06:05.491Z,23.09
2017-03-01T09:07:05.363Z,23.06
2017-03-01T09:08:05.305Z,23.02
2017-03-01T09:09:05.225Z,22.99
2017-03-01T09:10:05.282Z,23.03
2017-03-01T09:11:05.101Z,23.05
2017-03-01T09:12:05.039Z,23.08
2017-03-01T09:13:04.989Z,23.05
2017-03-01T09:14:04.917Z,23
2017-03-01T09:15:04.929Z,23.05
2017-03-01T09:16:04.404Z,23.02
2017-03-01T09:17:04.738Z,23.06
2017-03-01T09:18:04.306Z,23.02
2017-03-01T09:19:04.605Z,23.03
2017-03-01T09:20:04.493Z,23.02
2017-03-01T09:21:04.483Z,23.06
2017-03-01T09:22:04.419Z,23.05
2017-03-01T09:23:03.993Z,22.98
2017-03-01T09:24:04.296Z,23.03
2017-03-01T09:25:04.187Z,23.06
2017-03-01T09:26:04.187Z,23.06
2017-03-01T09:27:04.158Z,23.06
2017-03-01T09:28:04.080Z,23.03
2017-03-01T09:29:03.988Z,23.05
2017-03-01T09:30:03.932Z,23.02
2017-03-01T09:31:03.856Z,23.02
2017-03-01T09:32:03.799Z,23.03
2017-03-01T09:33:03.358Z,23
2017-03-01T09:34:03.689Z,23.02
2017-03-01T09:35:03.825Z,23.02
2017-03-01T09:36:03.728Z,23.02
2017-03-01T09:37:03.517Z,23.06
2017-03-01T09:38:03.486Z,23
2017-03-01T09:39:03.033Z,23.02
2017-03-01T09:40:03.408Z,23.08
2017-03-01T09:41:03.324Z,23.06
2017-03-01T09:42:02.808Z,22.98
2017-03-01T09:43:03.234Z,23.03
2017-03-01T09:44:03.085Z,23.03
2017-03-01T09:45:03.140Z,23.08
2017-03-01T09:46:02.949Z,23.06
2017-03-01T09:47:02.900Z,23.06
2017-03-01T09:48:03.013Z,23.06
2017-03-01T09:49:02.353Z,23.06
2017-03-01T09:50:02.676Z,22.98
2017-03-01T09:51:02.632Z,23.06
2017-03-01T09:52:02.553Z,23.05
2017-03-01T09:53:02.519Z,23.03
2017-03-01T09:54:02.430Z,23
2017-03-01T09:55:02.536Z,23.03
2017-03-01T09:56:02.311Z,23.06
2017-03-01T09:57:02.258Z,23.03
2017-03-01T09:58:01.796Z,23.09
2017-03-01T09:59:01.756Z,23
2017-03-01T10:00:02.284Z,23.02
2017-03-01T10:01:01.621Z,23.06
2017-03-01T10:02:01.961Z,23.03
2017-03-01T10:03:01.871Z,23.02
2017-03-01T10:04:01.808Z,23
2017-03-01T10:05:01.367Z,23.02
2017-03-01T10:06:01.685Z,23.06
2017-03-01T10:07:01.627Z,23.03
2017-03-01T10:08:01.576Z,23.05
2017-03-01T10:09:01.500Z,23.06
2017-03-01T10:10:01.431Z,23.03
2017-03-01T10:11:00.983Z,23.06
2017-03-01T10:12:00.929Z,23
2017-03-01T10:13:00.862Z,23.02
2017-03-01T10:14:01.015Z,23.03
2017-03-01T10:15:01.137Z,23
2017-03-01T10:16:01.076Z,23.05
2017-03-01T10:17:01.000Z,23.03
2017-03-01T10:18:00.932Z,23
2017-03-01T10:19:00.883Z,23.03
2017-03-01T10:20:00.434Z,23.06
2017-03-01T10:21:00.402Z,23.03
2017-03-01T10:22:00.684Z,23.03
2017-03-01T10:23:00.628Z,22.99
2017-03-01T10:24:00.565Z,23.06
2017-03-01T10:25:00.509Z,23
2017-03-01T10:26:00.062Z,23.05
2017-03-01T10:27:00.374Z,23.03
2017-03-01T10:28:00.316Z,23.02
2017-03-01T10:29:00.257Z,23.08
2017-03-01T10:30:00.189Z,23.02
2017-03-01T10:31:00.129Z,23.06
2017-03-01T10:32:00.115Z,23.02
2017-03-01T10:33:00.005Z,23.02
2017-03-01T10:33:59.960Z,23.03
2017-03-01T10:34:59.492Z,23.02
2017-03-01T10:35:59.826Z,23.06
2017-03-01T10:36:59.762Z,23.08
2017-03-01T10:37:59.701Z,23.05
2017-03-01T10:38:59.637Z,23.08
2017-03-01T10:39:59.569Z,23.12
2017-03-01T10:40:59.532Z,23.18
2017-03-01T10:41:59.443Z,23.13
2017-03-01T10:42:59.414Z,23.13
2017-03-01T10:43:59.317Z,23.13
2017-03-01T10:44:59.285Z,23.17
2017-03-01T10:45:58.826Z,23.1
2017-03-01T10:46:58.763Z,23.17
2017-03-01T10:47:59.081Z,23.12
2017-03-01T10:48:59.006Z,23.17
2017-03-01T10:49:58.955Z,23.21
2017-03-01T10:50:58.895Z,23.18
2017-03-01T10:51:58.438Z,23.17
2017-03-01T10:52:58.772Z,23.18
2017-03-01T10:53:58.698Z,23.21
2017-03-01T10:54:58.635Z,23.18
2017-03-01T10:55:58.410Z,23.23
2017-03-01T10:56:58.138Z,23.24
2017-03-01T10:57:58.453Z,23.21
2017-03-01T10:58:58.386Z,23.13
2017-03-01T10:59:58.363Z,23.21
2017-03-01T11:00:58.268Z,23.24
2017-03-01T11:01:58.204Z,23.21
2017-03-01T11:02:58.136Z,23.24
2017-03-01T11:03:58.099Z,23.17
2017-03-01T11:04:58.015Z,23.21
2017-03-01T11:05:57.981Z,23.23
2017-03-01T11:06:57.891Z,23.21
2017-03-01T11:07:57.441Z,23.21
2017-03-01T11:08:57.790Z,23.25
2017-03-01T11:09:57.333Z,23.25
2017-03-01T11:10:57.659Z,23.34
2017-03-01T11:11:57.608Z,23.27
2017-03-01T11:12:57.549Z,23.31
2017-03-01T11:13:57.455Z,23.27
2017-03-01T11:14:57.393Z,23.36
2017-03-01T11:15:56.953Z,23.31
2017-03-01T11:16:57.268Z,23.32
2017-03-01T11:17:57.223Z,23.39
2017-03-01T11:18:57.146Z,23.39
2017-03-01T11:19:57.082Z,23.32
2017-03-01T11:20:56.640Z,23.39
2017-03-01T11:21:56.957Z,23.31
2017-03-01T11:22:56.915Z,23.34
2017-03-01T11:23:56.450Z,23.28
2017-03-01T11:24:56.401Z,23.34
2017-03-01T11:25:56.714Z,23.32
2017-03-01T11:26:56.272Z,23.32
2017-03-01T11:27:56.592Z,23.31
2017-03-01T11:28:56.556Z,23.43
2017-03-01T11:29:56.470Z,23.32
2017-03-01T11:30:56.404Z,23.44
2017-03-01T11:31:56.345Z,23.48
2017-03-01T11:32:56.286Z,23.34
2017-03-01T11:33:56.219Z,23.44
2017-03-01T11:34:56.175Z,23.39
2017-03-01T11:35:56.248Z,23.44
2017-03-01T11:36:56.036Z,23.43
2017-03-01T11:37:55.990Z,23.4
2017-03-01T11:38:55.910Z,23.41
2017-03-01T11:39:55.871Z,23.44
2017-03-01T11:40:55.792Z,23.47
2017-03-01T11:41:55.756Z,23.44
2017-03-01T11:42:55.667Z,23.43
2017-03-01T11:43:55.600Z,23.46
2017-03-01T11:44:55.546Z,23.43
2017-03-01T11:45:55.484Z,23.48
2017-03-01T11:46:55.424Z,23.48
2017-03-01T11:47:55.356Z,23.4
2017-03-01T11:48:55.294Z,23.55
2017-03-01T11:49:55.226Z,23.48
2017-03-01T11:50:55.165Z,23.47
2017-03-01T11:51:55.105Z,23.48
2017-03-01T11:52:55.040Z,23.61
2017-03-01T11:53:54.610Z,23.44
2017-03-01T11:54:54.932Z,23.5
2017-03-01T11:55:54.575Z,23.51
2017-03-01T11:56:54.025Z,23.61
2017-03-01T11:57:54.734Z,23.48
2017-03-01T11:58:54.697Z,23.4
2017-03-01T11:59:54.608Z,23.5
2017-03-01T12:00:54.558Z,23.46
2017-03-01T12:01:54.101Z,23.44
2017-03-01T12:02:54.422Z,23.46
2017-03-01T12:03:54.363Z,23.44
2017-03-01T12:04:53.913Z,23.43
2017-03-01T12:05:54.257Z,23.48
2017-03-01T12:06:54.177Z,23.47
2017-03-01T12:07:54.115Z,23.46
2017-03-01T12:08:54.058Z,23.46
2017-03-01T12:09:54.057Z,23.43
2017-03-01T12:10:53.547Z,23.55
2017-03-01T12:11:53.504Z,23.44
2017-03-01T12:12:53.843Z,23.43
2017-03-01T12:13:53.373Z,23.4
2017-03-01T12:14:53.782Z,23.47
2017-03-01T12:15:53.623Z,23.48
2017-03-01T12:16:53.565Z,23.41
2017-03-01T12:17:53.500Z,23.5
2017-03-01T12:18:53.476Z,23.55
2017-03-01T12:19:53.374Z,23.46
2017-03-01T12:20:52.925Z,23.5
2017-03-01T12:30:51.385Z,23.65
2017-03-01T12:31:51.567Z,23.61
2017-03-01T12:32:51.251Z,23.63
2017-03-01T12:33:50.831Z,23.58
2017-03-01T12:34:51.126Z,23.59
2017-03-01T12:35:51.327Z,23.59
2017-03-01T12:36:50.631Z,23.56
2017-03-01T12:37:50.586Z,23.51
2017-03-01T12:38:50.876Z,23.5
2017-03-01T12:39:50.821Z,23.5
2017-03-01T12:40:51.009Z,23.55
2017-03-01T12:41:50.698Z,23.51
2017-03-01T12:42:50.641Z,23.44
2017-03-01T12:43:50.604Z,23.51
2017-03-01T12:44:50.536Z,23.55
2017-03-01T12:45:50.443Z,23.56
2017-03-01T12:46:50.390Z,23.48
2017-03-01T12:47:50.322Z,23.5
2017-03-01T12:48:49.900Z,23.56
2017-03-01T12:49:50.211Z,23.55
2017-03-01T12:50:50.168Z,23.48
2017-03-01T12:51:50.101Z,23.55
2017-03-01T12:52:50.015Z,23.58
2017-03-01T12:53:49.965Z,23.44
2017-03-01T12:54:49.891Z,23.46
2017-03-01T12:55:49.830Z,23.55
2017-03-01T12:56:49.780Z,23.48
2017-03-01T12:57:49.705Z,23.51
2017-03-01T12:58:49.651Z,23.51
2017-03-01T12:59:49.584Z,23.51
2017-03-01T13:00:49.520Z,23.5
2017-03-01T13:01:49.464Z,23.58
2017-03-01T13:02:49.017Z,23.44
2017-03-01T13:03:49.353Z,23.46
2017-03-01T13:04:49.275Z,23.44
2017-03-01T13:05:49.221Z,23.46
2017-03-01T13:06:49.158Z,23.48
2017-03-01T13:07:49.089Z,23.46
2017-03-01T13:08:49.045Z,23.46
2017-03-01T13:09:48.970Z,23.48
2017-03-01T13:10:48.911Z,23.41
2017-03-01T13:11:48.846Z,23.41
2017-03-01T13:12:48.789Z,23.47
2017-03-01T13:13:48.346Z,23.44
2017-03-01T13:14:48.710Z,23.44
2017-03-01T13:15:48.318Z,23.5
2017-03-01T13:16:48.540Z,23.44
2017-03-01T13:17:48.516Z,23.46
2017-03-01T13:18:48.494Z,23.48
2017-03-01T13:19:48.352Z,23.48
2017-03-01T13:20:48.305Z,23.46
2017-03-01T13:21:48.225Z,23.46
2017-03-01T13:22:47.794Z,23.46
2017-03-01T13:23:47.720Z,23.46
2017-03-01T13:24:47.664Z,23.4
2017-03-01T13:25:47.220Z,23.5
2017-03-01T13:26:47.535Z,23.43
2017-03-01T13:27:47.479Z,23.39
2017-03-01T13:28:47.792Z,23.46
2017-03-01T13:29:47.734Z,23.41
2017-03-01T13:30:47.670Z,23.44
2017-03-01T13:31:47.608Z,23.4
2017-03-01T13:32:47.599Z,23.34
2017-03-01T13:33:47.494Z,23.37
2017-03-01T13:34:47.438Z,23.47
2017-03-01T13:35:46.987Z,23.34
2017-03-01T13:36:47.318Z,23.34
2017-03-01T13:37:47.249Z,23.43
2017-03-01T13:38:47.189Z,23.34
2017-03-01T13:39:46.938Z,23.46
2017-03-01T13:40:47.060Z,23.47
2017-03-01T13:41:47.008Z,23.44
2017-03-01T13:42:46.926Z,23.37
2017-03-01T13:43:46.877Z,23.41
2017-03-01T13:44:46.826Z,23.48
2017-03-01T13:45:46.904Z,23.46
2017-03-01T13:46:46.689Z,23.34
2017-03-01T13:47:46.240Z,23.43
2017-03-01T13:48:46.555Z,23.32
2017-03-01T13:49:46.507Z,23.36
2017-03-01T13:50:46.646Z,23.41
2017-03-01T13:51:46.379Z,23.37